Time;durP1;ratioP1;P1;durP2;ratioP2;P2;SDS_P1;SDS_P2;PMS_P1;PMS_P2;Temp;Humidity;BMP_temperature;BMP_pressure;BME280_temperature;BME280_humidity;BME280_pressure;Samples;Min_cycle;Max_cycle;Signal;HPM_P1;HPM_P2
2022/02/25 00:02:37;;;;;;;;;;;;;;;;;;;;;
2022/02/25 00:15:57;;;;;;;8.07;3.03;;;5.60;99.90;;;;;;5968665;24;20744;-83
2022/02/25 00:19:28;;;;;;;2.27;1.97;;;5.60;99.90;;;;;;5816824;24;20419;-83
2022/02/25 00:26:40;;;;;;;9.27;2.17;;;5.60;99.90;;;;;;5905823;24;20457;-85
2022/02/25 00:29:46;;;;;;;4.13;2.63;;;5.60;99.90;;;;;;5916494;24;20414;-85
2022/02/25 00:32:54;;;;;;;6.80;2.53;;;5.60;99.90;;;;;;5916041;24;20410;-84
2022/02/25 00:39:20;;;;;;;;;;;;;;;;;;;;;
2022/02/25 00:42:24;;;;;;;7.40;2.40;;;5.60;99.90;;;;;;5976264;24;21200;-81
2022/02/25 00:52:47;;;;;;;5.80;2.27;;;5.50;99.90;;;;;;5989005;24;20408;-86
2022/02/25 00:56:01;;;;;;;4.40;1.90;;;5.50;99.90;;;;;;5952029;23;20425;-87
2022/02/25 00:59:02;;;;;;;6.13;2.27;;;5.60;99.90;;;;;;6051979;23;20542;-85
2022/02/25 01:01:47;;;;;;;4.87;2.57;;;5.60;99.90;;;;;;6043658;23;20411;-85
2022/02/25 01:05:02;;;;;;;;;;;;;;;;;;;;;
2022/02/25 01:07:51;;;;;;;3.20;1.83;;;5.50;99.90;;;;;;6036091;23;20434;-84
2022/02/25 01:11:12;;;;;;;3.60;2.10;;;5.50;99.90;;;;;;6052316;23;20921;-85
2022/02/25 01:14:49;;;;;;;4.10;1.70;;;5.50;99.90;;;;;;6051182;23;20424;-83
2022/02/25 01:20:24;;;;;;;2.53;1.47;;;5.50;99.90;;;;;;6083930;23;20443;-82
2022/02/25 01:23:19;;;;;;;2.10;1.50;;;5.50;99.90;;;;;;6095256;23;20411;-84
2022/02/25 01:25:57;;;;;;;4.70;2.20;;;5.50;99.90;;;;;;6091220;23;20431;-85
2022/02/25 01:29:25;;;;;;;3.23;1.70;;;5.50;99.90;;;;;;6073478;23;20445;-85
2022/02/25 01:32:45;;;;;;;3.83;2.20;;;5.60;99.90;;;;;;6093838;23;20424;-84
2022/02/25 01:35:24;;;;;;;5.70;1.93;;;5.60;99.90;;;;;;6081420;23;20420;-86
2022/02/25 01:38:11;;;;;;;7.70;2.67;;;5.70;99.90;;;;;;6122964;23;20705;-85
2022/02/25 01:41:45;;;;;;;8.50;2.30;;;5.80;99.90;;;;;;6092000;23;20448;-83
2022/02/25 01:48:13;;;;;;;5.33;2.40;;;5.60;99.90;;;;;;6099498;23;20433;-82
2022/02/25 01:54:31;;;;;;;4.00;1.93;;;5.50;99.90;;;;;;6093748;23;20376;-84
2022/02/25 01:57:16;;;;;;;4.63;2.20;;;5.80;99.90;;;;;;6113045;23;20535;-83
2022/02/25 02:00:19;;;;;;;4.40;1.80;;;6.00;99.90;;;;;;6109162;23;20445;-85
2022/02/25 02:03:12;;;;;;;3.73;1.73;;;5.90;99.90;;;;;;6098599;23;20408;-85
2022/02/25 02:05:50;;;;;;;4.40;2.30;;;5.80;99.90;;;;;;6097330;23;20436;-83
2022/02/25 02:08:35;;;;;;;4.80;2.70;;;5.70;99.90;;;;;;6115838;23;20526;-83
2022/02/25 02:11:33;;;;;;;5.63;1.90;;;5.70;99.90;;;;;;6113251;23;20428;-83
2022/02/25 02:17:59;;;;;;;8.10;1.80;;;5.50;99.90;;;;;;6086914;23;20544;-84
2022/02/25 02:20:29;;;;;;;7.43;2.53;;;5.20;99.90;;;;;;6110276;23;20420;-80
2022/02/25 02:22:56;;;;;;;7.50;1.97;;;5.40;99.90;;;;;;6106324;23;20409;-86
2022/02/25 02:28:45;;;;;;;2.47;2.10;;;5.30;99.90;;;;;;6095674;23;20436;-85
2022/02/25 02:31:21;;;;;;;6.50;2.40;;;5.40;99.90;;;;;;6102664;23;20536;-85
2022/02/25 02:34:03;;;;;;;4.40;2.80;;;5.50;99.90;;;;;;6100683;23;20417;-85
2022/02/25 02:36:47;;;;;;;3.63;1.70;;;5.40;99.90;;;;;;6124091;23;20448;-86
2022/02/25 02:39:25;;;;;;;2.00;1.27;;;5.30;99.90;;;;;;6104783;23;20445;-84
2022/02/25 02:41:52;;;;;;;2.93;1.40;;;5.50;99.90;;;;;;6107376;23;20488;-84
2022/02/25 02:44:21;;;;;;;3.50;1.80;;;5.60;99.90;;;;;;6108668;23;20957;-83
2022/02/25 02:46:51;;;;;;;5.30;1.80;;;5.70;99.90;;;;;;6109453;23;20412;-84
2022/02/25 02:49:18;;;;;;;6.00;1.87;;;5.50;99.90;;;;;;6107582;23;20431;-85
2022/02/25 02:51:53;;;;;;;5.20;1.70;;;5.50;99.90;;;;;;6099274;23;20415;-85
2022/02/25 02:54:38;;;;;;;2.97;1.53;;;5.50;99.90;;;;;;6099683;23;20524;-87
2022/02/25 02:57:26;;;;;;;5.40;1.93;;;5.40;99.90;;;;;;6100107;23;20474;-85
2022/02/25 03:00:11;;;;;;;2.30;1.53;;;5.30;99.90;;;;;;6116328;23;20759;-84
2022/02/25 03:02:50;;;;;;;4.50;1.50;;;5.20;99.90;;;;;;6121641;23;20412;-86
2022/02/25 03:05:20;;;;;;;2.87;2.17;;;5.10;99.90;;;;;;6123414;23;20412;-86
2022/02/25 03:07:54;;;;;;;3.60;1.53;;;5.10;99.90;;;;;;6122329;23;20444;-84
2022/02/25 03:10:56;;;;;;;6.80;1.50;;;5.10;99.90;;;;;;6121663;23;20585;-85
2022/02/25 03:16:50;;;;;;;6.07;1.40;;;5.30;99.90;;;;;;6110785;23;20417;-83
2022/02/25 03:19:31;;;;;;;6.63;2.10;;;5.10;99.90;;;;;;6128668;23;20507;-85
2022/02/25 03:22:01;;;;;;;6.83;2.07;;;5.30;99.90;;;;;;6101030;23;20912;-84
2022/02/25 03:24:56;;;;;;;4.70;2.20;;;5.20;99.90;;;;;;6106632;23;20729;-85
2022/02/25 03:27:31;;;;;;;5.23;1.97;;;5.20;99.90;;;;;;6107978;23;20436;-87
2022/02/25 03:30:13;;;;;;;7.87;2.40;;;5.20;99.90;;;;;;6134901;23;20865;-86
2022/02/25 03:32:46;;;;;;;6.00;2.30;;;5.20;99.90;;;;;;6112145;23;20447;-87
2022/02/25 03:35:21;;;;;;;5.70;2.10;;;5.40;99.70;;;;;;6114043;23;20507;-80
2022/02/25 03:38:03;;;;;;;6.27;2.00;;;5.40;99.30;;;;;;6112350;23;20447;-84
2022/02/25 03:40:31;;;;;;;5.70;2.63;;;5.40;99.40;;;;;;6134517;23;20409;-86
2022/02/25 03:43:04;;;;;;;6.00;2.03;;;5.30;99.50;;;;;;6111568;23;20396;-85
2022/02/25 03:45:31;;;;;;;4.40;2.87;;;5.30;99.50;;;;;;6103792;23;20453;-84
2022/02/25 03:48:00;;;;;;;6.37;3.20;;;5.20;99.80;;;;;;6109301;23;20453;-86
2022/02/25 03:50:27;;;;;;;7.63;2.37;;;5.30;99.90;;;;;;6129085;23;20420;-85
2022/02/25 03:52:54;;;;;;;3.70;1.80;;;5.40;99.40;;;;;;6122275;23;20448;-88
2022/02/25 03:55:21;;;;;;;2.83;1.97;;;5.40;99.00;;;;;;6098085;23;20417;-82
2022/02/25 03:57:47;;;;;;;9.07;2.00;;;5.30;99.10;;;;;;6122342;23;20455;-86
2022/02/25 04:00:15;;;;;;;7.70;1.70;;;5.20;99.40;;;;;;6105207;23;20712;-87
2022/02/25 04:02:42;;;;;;;5.70;2.13;;;5.10;99.70;;;;;;6097625;23;20933;-85
2022/02/25 04:05:12;;;;;;;4.63;1.83;;;5.40;99.20;;;;;;6121847;23;20485;-84
2022/02/25 04:07:41;;;;;;;3.20;1.37;;;5.40;98.90;;;;;;6131447;23;20509;-85
2022/02/25 04:10:09;;;;;;;5.33;1.90;;;5.20;99.10;;;;;;6136168;23;20448;-85
2022/02/25 04:12:38;;;;;;;5.30;2.33;;;5.20;99.10;;;;;;6123156;23;20425;-84
2022/02/25 04:15:07;;;;;;;4.80;1.43;;;5.40;98.90;;;;;;6098790;23;20420;-84
2022/02/25 04:17:34;;;;;;;4.97;1.63;;;5.40;98.60;;;;;;6121295;23;20943;-85
2022/02/25 04:20:02;;;;;;;5.33;1.80;;;5.30;98.50;;;;;;6119861;23;20459;-85
2022/02/25 04:22:32;;;;;;;6.57;1.93;;;5.30;98.70;;;;;;6122836;23;20420;-86
2022/02/25 04:25:00;;;;;;;3.60;1.90;;;5.30;98.80;;;;;;6098640;23;20444;-86
2022/02/25 04:27:30;;;;;;;7.70;2.37;;;5.20;98.90;;;;;;6122777;23;20440;-83
2022/02/25 04:29:57;;;;;;;4.37;1.47;;;5.00;99.10;;;;;;6122865;23;20475;-84
2022/02/25 04:32:24;;;;;;;4.80;1.97;;;5.00;99.40;;;;;;6103472;23;20420;-86
2022/02/25 04:34:51;;;;;;;3.60;1.80;;;5.10;99.30;;;;;;6130151;23;20440;-83
2022/02/25 04:37:19;;;;;;;3.57;1.40;;;5.30;98.80;;;;;;6101428;23;20478;-83
2022/02/25 04:39:46;;;;;;;5.03;1.77;;;5.40;98.40;;;;;;6102767;23;20443;-85
2022/02/25 04:42:13;;;;;;;8.40;1.90;;;5.40;98.40;;;;;;6130576;23;20412;-85
2022/02/25 04:44:40;;;;;;;6.03;1.63;;;5.30;98.30;;;;;;6108267;23;21239;-84
2022/02/25 04:47:08;;;;;;;9.30;1.63;;;5.40;98.20;;;;;;6129314;23;20442;-85
2022/02/25 04:49:36;;;;;;;4.90;1.33;;;5.40;98.20;;;;;;6126571;23;20420;-85
2022/02/25 04:52:04;;;;;;;6.87;1.53;;;5.30;98.20;;;;;;6128010;23;20509;-84
2022/02/25 04:54:31;;;;;;;4.50;1.70;;;5.40;98.30;;;;;;6106004;23;20973;-85
2022/02/25 04:57:01;;;;;;;4.37;1.30;;;5.50;97.80;;;;;;6129347;23;20433;-83
2022/02/25 04:59:28;;;;;;;6.43;1.77;;;5.50;97.70;;;;;;6127982;23;20412;-85
2022/02/25 05:01:55;;;;;;;4.20;1.40;;;5.50;97.90;;;;;;6101888;23;20842;-83
2022/02/25 05:04:22;;;;;;;2.70;1.40;;;5.40;97.90;;;;;;6105360;23;20417;-85
2022/02/25 05:06:50;;;;;;;5.53;1.50;;;5.40;98.10;;;;;;6127268;23;20405;-84
2022/02/25 05:09:18;;;;;;;8.57;1.50;;;5.30;98.20;;;;;;6104980;23;20417;-83
2022/02/25 05:11:45;;;;;;;7.93;1.47;;;5.10;98.60;;;;;;6103283;23;20417;-84
2022/02/25 05:22:31;;;;;;;8.40;1.70;;;5.20;98.80;;;;;;6105395;23;20423;-82
2022/02/25 05:24:58;;;;;;;5.30;1.83;;;5.20;98.50;;;;;;6102831;23;20435;-87
2022/02/25 05:27:26;;;;;;;10.43;1.60;;;5.10;98.70;;;;;;6103913;23;20536;-87
2022/02/25 05:29:53;;;;;;;5.63;1.47;;;5.20;98.90;;;;;;6102673;23;20440;-85
2022/02/25 05:32:20;;;;;;;4.27;1.63;;;5.30;98.50;;;;;;6101196;23;21083;-84
2022/02/25 05:34:47;;;;;;;5.33;1.50;;;5.40;98.40;;;;;;6100695;23;20424;-85
2022/02/25 05:37:14;;;;;;;12.17;3.53;;;5.30;98.30;;;;;;6100281;23;21008;-86
2022/02/25 05:39:46;;;;;;;5.10;2.07;;;5.30;98.70;;;;;;6101610;23;20436;-84
2022/02/25 05:42:23;;;;;;;6.03;1.93;;;5.40;98.70;;;;;;6126505;23;20412;-85
2022/02/25 05:44:51;;;;;;;4.67;1.67;;;5.30;98.60;;;;;;6104745;23;20416;-84
2022/02/25 05:47:22;;;;;;;7.63;2.83;;;5.30;98.60;;;;;;6124747;23;20443;-85
2022/02/25 05:50:06;;;;;;;4.00;1.73;;;5.20;98.60;;;;;;6100691;23;20408;-86
2022/02/25 05:52:35;;;;;;;3.33;1.80;;;5.20;98.70;;;;;;6124250;23;20433;-85
2022/02/25 05:55:14;;;;;;;4.80;2.00;;;5.20;98.80;;;;;;6099998;23;20743;-85
2022/02/25 05:57:47;;;;;;;6.80;1.73;;;5.20;98.80;;;;;;6101323;23;20455;-84
2022/02/25 06:00:34;;;;;;;7.13;1.67;;;5.20;98.80;;;;;;6128045;23;20414;-85
2022/02/25 06:03:08;;;;;;;3.73;1.90;;;5.20;98.90;;;;;;6110630;23;20423;-85
2022/02/25 06:05:38;;;;;;;5.07;1.77;;;5.20;98.80;;;;;;6141148;23;20389;-84
2022/02/25 06:08:41;;;;;;;9.67;3.57;;;5.10;98.70;;;;;;6116598;23;20596;-86
2022/02/25 06:11:33;;;;;;;6.47;2.27;;;5.20;99.10;;;;;;6136424;23;20428;-86
2022/02/25 06:14:16;;;;;;;5.50;2.20;;;5.20;99.00;;;;;;6127311;23;20423;-82
2022/02/25 06:16:56;;;;;;;5.93;2.17;;;5.20;99.00;;;;;;6129597;23;20408;-84
2022/02/25 06:19:37;;;;;;;4.30;1.83;;;5.30;99.10;;;;;;6125309;23;20444;-84
2022/02/25 06:22:24;;;;;;;8.90;1.90;;;5.10;99.20;;;;;;6124248;23;20417;-84
2022/02/25 06:25:02;;;;;;;8.13;1.90;;;5.20;99.30;;;;;;6140149;23;20424;-86
2022/02/25 06:27:40;;;;;;;5.07;1.87;;;5.10;99.40;;;;;;6119826;23;20436;-87
2022/02/25 06:30:12;;;;;;;3.23;1.77;;;5.20;99.90;;;;;;6143148;23;20428;-86
2022/02/25 06:33:03;;;;;;;12.97;2.43;;;5.20;99.20;;;;;;6136510;23;20488;-87
2022/02/25 06:35:47;;;;;;;10.53;2.20;;;5.30;99.10;;;;;;6137960;23;20669;-87
2022/02/25 06:38:30;;;;;;;7.70;1.93;;;5.20;99.40;;;;;;6140780;23;20463;-86
2022/02/25 06:41:09;;;;;;;6.23;1.80;;;5.30;99.30;;;;;;6125312;23;20884;-85
2022/02/25 06:43:47;;;;;;;3.90;2.03;;;5.30;99.30;;;;;;6101342;23;20493;-85
2022/02/25 06:46:41;;;;;;;7.13;1.90;;;5.50;99.00;;;;;;6099718;23;20437;-85
2022/02/25 06:49:11;;;;;;;8.90;2.10;;;5.50;98.90;;;;;;6126624;23;20429;-85
2022/02/25 06:51:46;;;;;;;5.10;1.63;;;5.60;98.80;;;;;;6126898;23;20873;-86
2022/02/25 06:54:26;;;;;;;6.93;1.97;;;5.80;98.50;;;;;;6127102;23;20409;-84
2022/02/25 06:57:13;;;;;;;13.17;2.90;;;5.80;98.20;;;;;;6131756;23;20464;-85
2022/02/25 06:59:52;;;;;;;9.13;2.00;;;5.90;98.00;;;;;;6110695;23;20412;-85
2022/02/25 07:02:25;;;;;;;8.83;2.20;;;6.00;98.00;;;;;;6111207;23;20460;-85
2022/02/25 07:05:03;;;;;;;6.70;1.90;;;6.10;97.80;;;;;;6129310;23;20412;-85
2022/02/25 07:07:56;;;;;;;4.40;2.10;;;6.10;97.80;;;;;;6104587;23;20439;-85
2022/02/25 07:10:32;;;;;;;9.53;1.67;;;6.10;97.50;;;;;;6104164;23;20508;-85
2022/02/25 07:13:17;;;;;;;6.33;2.10;;;6.20;97.20;;;;;;6103253;23;20419;-85
2022/02/25 07:15:48;;;;;;;7.23;1.87;;;6.10;97.20;;;;;;6100361;23;20479;-86
2022/02/25 07:21:13;;;;;;;8.60;2.40;;;5.80;97.80;;;;;;6100416;23;20412;-85
2022/02/25 07:23:49;;;;;;;8.37;3.20;;;5.80;98.40;;;;;;6124337;23;20411;-85
2022/02/25 07:26:19;;;;;;;13.23;2.50;;;5.80;98.60;;;;;;6102781;23;20463;-84
2022/02/25 07:28:53;;;;;;;8.17;2.20;;;6.00;98.40;;;;;;6124054;23;20471;-82
2022/02/25 07:31:25;;;;;;;4.47;2.13;;;6.30;97.70;;;;;;6100961;23;20411;-84
2022/02/25 07:34:03;;;;;;;7.67;1.70;;;6.30;97.30;;;;;;6100565;23;20412;-85
2022/02/25 07:36:36;;;;;;;7.20;2.43;;;6.20;97.60;;;;;;6123771;23;20442;-86
2022/02/25 07:39:10;;;;;;;5.83;2.07;;;6.20;97.80;;;;;;6123720;23;20507;-85
2022/02/25 07:41:39;;;;;;;6.67;1.90;;;6.20;97.80;;;;;;6124410;23;20445;-85
2022/02/25 07:44:21;;;;;;;5.50;1.90;;;6.20;98.10;;;;;;6122350;23;20412;-85
2022/02/25 07:47:00;;;;;;;6.40;1.57;;;6.20;98.00;;;;;;6103449;23;20397;-85
2022/02/25 07:49:35;;;;;;;8.73;2.67;;;6.30;98.20;;;;;;6126545;23;20420;-85
2022/02/25 07:52:04;;;;;;;7.70;1.90;;;6.40;97.60;;;;;;6126963;23;20448;-85
2022/02/25 07:54:40;;;;;;;5.70;2.33;;;6.40;97.60;;;;;;6123964;23;20412;-87
2022/02/25 07:57:18;;;;;;;3.73;1.63;;;6.20;98.10;;;;;;6100634;23;20515;-86
2022/02/25 08:00:15;;;;;;;6.00;2.03;;;6.20;98.30;;;;;;6104708;23;20396;-86
2022/02/25 08:02:57;;;;;;;7.80;1.90;;;6.40;98.20;;;;;;6122650;23;20492;-86
2022/02/25 08:05:36;;;;;;;7.50;2.30;;;6.30;98.20;;;;;;6124055;23;20997;-84
2022/02/25 08:08:07;;;;;;;3.47;1.50;;;6.30;98.50;;;;;;6130920;23;20462;-85
2022/02/25 08:11:08;;;;;;;8.93;1.97;;;6.10;99.00;;;;;;6125674;23;20431;-86
2022/02/25 08:13:45;;;;;;;5.10;2.40;;;6.10;99.10;;;;;;6127218;23;20408;-84
2022/02/25 08:16:41;;;;;;;6.23;2.60;;;6.10;99.30;;;;;;6104829;23;21003;-86
2022/02/25 08:19:20;;;;;;;7.57;1.93;;;6.10;99.40;;;;;;6100604;23;20520;-82
2022/02/25 08:21:59;;;;;;;5.03;2.00;;;6.10;99.60;;;;;;6104771;23;20412;-84
2022/02/25 08:24:42;;;;;;;6.00;1.73;;;6.10;99.60;;;;;;6104907;23;20421;-84
2022/02/25 08:27:24;;;;;;;6.77;2.00;;;6.20;99.60;;;;;;6109537;23;20435;-85
2022/02/25 08:30:15;;;;;;;8.90;2.10;;;6.50;98.90;;;;;;6129532;23;20435;-82
2022/02/25 08:32:51;;;;;;;14.13;2.30;;;6.30;99.30;;;;;;6109687;23;20404;-83
2022/02/25 08:35:23;;;;;;;3.87;1.63;;;6.30;99.90;;;;;;6129962;23;20943;-84
2022/02/25 08:38:02;;;;;;;9.10;2.30;;;6.20;99.90;;;;;;6128054;23;20435;-82
2022/02/25 08:41:03;;;;;;;8.70;2.00;;;6.20;99.90;;;;;;6127433;23;20912;-85
2022/02/25 08:44:10;;;;;;;;;;;;;;;;;;;;;
2022/02/25 08:46:50;;;;;;;10.57;2.30;;;6.30;99.90;;;;;;6116043;23;20415;-84
2022/02/25 08:49:31;;;;;;;5.70;2.30;;;6.20;99.90;;;;;;6132888;23;20483;-87
2022/02/25 08:52:01;;;;;;;8.40;2.87;;;6.20;99.90;;;;;;6131455;23;20420;-86
2022/02/25 08:54:57;;;;;;;4.30;2.53;;;6.20;99.90;;;;;;6108111;23;20431;-85
2022/02/25 08:57:29;;;;;;;9.13;2.00;;;6.30;99.90;;;;;;6117355;23;20787;-85
2022/02/25 09:00:24;;;;;;;4.53;2.17;;;6.30;99.90;;;;;;6106985;23;20408;-85
2022/02/25 09:03:19;;;;;;;7.77;2.03;;;6.30;99.90;;;;;;6126470;23;20416;-85
2022/02/25 09:05:49;;;;;;;9.20;2.97;;;6.30;99.90;;;;;;6129886;23;20404;-84
2022/02/25 09:08:23;;;;;;;5.83;2.30;;;6.30;99.90;;;;;;6128259;23;20437;-85
2022/02/25 09:11:27;;;;;;;9.13;2.67;;;6.20;99.90;;;;;;6105231;23;20495;-85
2022/02/25 09:14:13;;;;;;;8.87;2.20;;;6.20;99.90;;;;;;6105015;23;20534;-86
2022/02/25 09:17:34;;;;;;;8.33;2.37;;;6.30;99.90;;;;;;6099112;23;20403;-88
2022/02/25 09:21:21;;;;;;;;;;;;;;;;;;;;;
2022/02/25 09:24:21;;;;;;;;;;;;;;;;;;;;;
2022/02/25 09:27:24;;;;;;;3.93;1.87;;;6.30;99.90;;;;;;6105444;23;20396;-88
2022/02/25 09:31:00;;;;;;;6.70;1.93;;;6.30;99.90;;;;;;6106288;23;20427;-87
2022/02/25 09:37:26;;;;;;;7.83;2.37;;;6.40;99.90;;;;;;6098804;23;20389;-85
2022/02/25 09:40:31;;;;;;;7.27;2.50;;;6.50;99.90;;;;;;6076329;23;20495;-84
2022/02/25 09:43:46;;;;;;;5.17;2.40;;;6.50;99.90;;;;;;6059281;23;20788;-83
2022/02/25 09:46:49;;;;;;;8.27;2.10;;;6.60;99.90;;;;;;6079753;23;20420;-86
2022/02/25 09:53:41;;;;;;;10.20;2.70;;;6.60;99.90;;;;;;6083155;23;20401;-84
2022/02/25 09:57:10;;;;;;;3.60;2.10;;;6.60;99.90;;;;;;6065072;23;20405;-86
2022/02/25 10:00:09;;;;;;;5.97;2.03;;;6.60;99.90;;;;;;6074608;23;20810;-84
2022/02/25 10:03:36;;;;;;;6.50;2.30;;;6.60;99.90;;;;;;6070084;23;20789;-87
2022/02/25 10:06:45;;;;;;;6.23;2.70;;;6.70;99.90;;;;;;6066017;23;20393;-84
2022/02/25 10:10:01;;;;;;;9.43;3.20;;;6.90;99.90;;;;;;5992062;23;20748;-85
2022/02/25 10:13:18;;;;;;;10.40;2.87;;;7.00;99.90;;;;;;6068817;23;20445;-86
2022/02/25 10:17:04;;;;;;;8.47;2.90;;;7.00;99.90;;;;;;6099100;23;20475;-85
2022/02/25 10:24:00;;;;;;;7.83;3.00;;;7.00;99.90;;;;;;6103318;23;20436;-86
2022/02/25 10:30:31;;;;;;;6.23;2.27;;;7.00;99.90;;;;;;6061858;23;20428;-85
2022/02/25 10:33:50;;;;;;;7.53;2.40;;;7.10;99.90;;;;;;5985497;24;20400;-86
2022/02/25 10:37:25;;;;;;;4.43;2.40;;;7.20;99.90;;;;;;5848197;24;20405;-87
2022/02/25 10:40:29;;;;;;;10.13;3.00;;;7.30;99.90;;;;;;5788984;24;20461;-87
2022/02/25 10:43:46;;;;;;;3.77;1.83;;;7.50;99.90;;;;;;5838445;24;20504;-86
2022/02/25 10:51:04;;;;;;;8.80;2.03;;;8.00;99.50;;;;;;5836227;24;20416;-87
2022/02/25 10:54:05;;;;;;;6.90;2.40;;;8.00;98.90;;;;;;5844457;24;20424;-85
2022/02/25 10:57:27;;;;;;;13.30;2.57;;;8.20;98.60;;;;;;5841674;24;20404;-88
2022/02/25 11:00:28;;;;;;;5.60;2.83;;;8.10;98.60;;;;;;5842506;24;20448;-88
2022/02/25 11:04:14;;;;;;;8.90;3.17;;;8.10;98.70;;;;;;5817920;24;20466;-86
2022/02/25 11:15:08;;;;;;;4.93;2.53;;;8.40;98.10;;;;;;5975672;23;20415;-86
2022/02/25 11:18:24;;;;;;;10.23;3.10;;;8.30;98.10;;;;;;6029543;23;20436;-86
2022/02/25 11:21:29;;;;;;;11.00;2.33;;;8.20;98.50;;;;;;5976335;23;20792;-88
2022/02/25 11:24:55;;;;;;;9.47;5.00;;;8.20;98.20;;;;;;5934996;24;20441;-88
2022/02/25 11:31:14;;;;;;;8.33;1.97;;;8.10;98.50;;;;;;6071067;23;20551;-86
2022/02/25 11:34:18;;;;;;;7.40;3.37;;;8.10;98.30;;;;;;6070412;23;20373;-85
2022/02/25 11:37:58;;;;;;;11.20;2.93;;;8.20;98.10;;;;;;6053870;23;20905;-85
2022/02/25 11:41:39;;;;;;;9.97;3.13;;;8.10;97.90;;;;;;6005387;23;20486;-84
2022/02/25 11:45:09;;;;;;;14.77;3.07;;;8.20;97.70;;;;;;5930236;24;20397;-87
2022/02/25 11:48:47;;;;;;;7.30;2.90;;;8.20;97.80;;;;;;5926941;24;20432;-83
2022/02/25 11:52:09;;;;;;;10.63;3.10;;;8.30;97.60;;;;;;5901205;24;20452;-84
2022/02/25 11:55:37;;;;;;;11.53;3.10;;;8.20;97.30;;;;;;5921048;24;20413;-86
2022/02/25 11:59:31;;;;;;;10.27;3.17;;;8.10;97.40;;;;;;5918026;24;21028;-85
2022/02/25 12:02:32;;;;;;;;;;;;;;;;;;;;;
2022/02/25 12:10:36;;;;;;;7.70;2.73;;;8.30;97.70;;;;;;5863671;24;20420;-86
2022/02/25 12:13:30;;;;;;;6.60;2.87;;;8.40;97.00;;;;;;5964822;24;20421;-85
2022/02/25 12:16:57;;;;;;;13.93;2.90;;;8.50;96.40;;;;;;5958168;24;20913;-86
2022/02/25 12:20:23;;;;;;;6.67;2.83;;;8.70;95.70;;;;;;6010881;23;20476;-85
2022/02/25 12:27:44;;;;;;;10.80;2.67;;;8.70;95.60;;;;;;5977109;23;20456;-86
2022/02/25 12:34:57;;;;;;;5.63;3.10;;;8.70;95.10;;;;;;6094913;23;20373;-85
2022/02/25 12:38:01;;;;;;;4.53;2.30;;;8.70;94.90;;;;;;5971738;23;20490;-85
2022/02/25 12:44:00;;;;;;;11.47;2.83;;;8.90;94.50;;;;;;6059082;23;21000;-86
2022/02/25 12:50:31;;;;;;;7.07;2.90;;;9.30;93.80;;;;;;5886988;24;20707;-86
2022/02/25 12:53:29;;;;;;;7.90;2.70;;;9.30;93.60;;;;;;6061667;23;20425;-85
2022/02/25 12:57:17;;;;;;;;;;;;;;;;;;;;;
2022/02/25 13:00:22;;;;;;;8.27;2.73;;;9.10;94.30;;;;;;5894415;24;20447;-90
2022/02/25 13:04:07;;;;;;;7.37;2.53;;;8.90;94.90;;;;;;5875995;24;20504;-90
2022/02/25 13:07:11;;;;;;;9.60;3.80;;;8.70;96.10;;;;;;5835159;24;20694;-91
2022/02/25 13:10:25;;;;;;;4.03;2.97;;;8.60;97.80;;;;;;5872073;24;20430;-89
2022/02/25 13:13:24;;;;;;;8.03;2.93;;;8.40;98.80;;;;;;5899116;24;20430;-89
2022/02/25 13:16:39;;;;;;;8.37;3.50;;;8.50;99.40;;;;;;5892708;24;20866;-87
2022/02/25 13:20:10;;;;;;;6.53;2.90;;;8.40;99.90;;;;;;5873159;24;20442;-88
2022/02/25 13:38:43;;;;;;;6.83;2.60;;;8.00;99.90;;;;;;5925895;24;20418;-86
2022/02/25 13:41:38;;;;;;;8.80;3.00;;;7.90;99.90;;;;;;5930173;24;20469;-86
2022/02/25 13:44:34;;;;;;;;;;;;;;;;;;;;;
2022/02/25 13:54:44;;;;;;;6.13;2.83;;;7.70;99.90;;;;;;6012945;23;20466;-85
2022/02/25 13:58:31;;;;;;;5.47;2.37;;;7.70;99.90;;;;;;5992946;23;20464;-86
2022/02/25 14:02:16;;;;;;;5.80;3.40;;;7.70;99.90;;;;;;6001640;23;20443;-86
2022/02/25 14:05:28;;;;;;;6.07;2.73;;;7.70;99.90;;;;;;6025715;23;20455;-87
2022/02/25 14:09:00;;;;;;;;;;;;;;;;;;;;;
2022/02/25 14:16:19;;;;;;;7.53;2.90;;;7.60;99.90;;;;;;6068453;23;20392;-83
2022/02/25 14:23:24;;;;;;;5.20;3.13;;;7.50;99.90;;;;;;6070152;23;20410;-85
2022/02/25 14:30:24;;;;;;;5.43;2.90;;;7.60;99.90;;;;;;6073085;23;20377;-87
2022/02/25 14:33:51;;;;;;;6.73;2.97;;;7.80;99.90;;;;;;6009339;23;20406;-86
2022/02/25 14:37:28;;;;;;;;;;;;;;;;;;;;;
2022/02/25 14:41:01;;;;;;;6.53;3.00;;;7.50;99.90;;;;;;6047323;23;20445;-85
2022/02/25 14:44:22;;;;;;;7.07;3.13;;;7.50;99.90;;;;;;6023814;23;20415;-86
2022/02/25 14:47:38;;;;;;;10.43;3.67;;;7.50;99.90;;;;;;6034849;23;20417;-86
2022/02/25 14:50:49;;;;;;;5.53;3.37;;;7.50;99.90;;;;;;6010945;23;20440;-84
2022/02/25 14:57:56;;;;;;;5.30;2.70;;;7.50;99.90;;;;;;5993488;24;20417;-84
2022/02/25 15:01:08;;;;;;;5.70;2.80;;;7.40;99.90;;;;;;5972987;24;20452;-85
2022/02/25 15:04:24;;;;;;;7.87;2.90;;;7.40;99.90;;;;;;5989247;24;20440;-85
2022/02/25 15:07:12;;;;;;;5.60;2.80;;;7.50;99.90;;;;;;5927457;24;20475;-85
2022/02/25 15:10:41;;;;;;;5.97;2.80;;;7.60;99.90;;;;;;5918333;24;20432;-86
2022/02/25 15:13:45;;;;;;;8.73;2.40;;;7.50;99.90;;;;;;6112688;23;20463;-85
2022/02/25 15:16:37;;;;;;;6.90;2.73;;;7.50;99.90;;;;;;6092243;23;20419;-84
2022/02/25 15:19:30;;;;;;;5.63;2.83;;;7.50;99.90;;;;;;6112556;23;20535;-84
2022/02/25 15:22:08;;;;;;;5.30;3.17;;;7.40;99.90;;;;;;6109977;23;20466;-87
2022/02/25 15:24:37;;;;;;;5.03;2.63;;;7.40;99.90;;;;;;6111872;23;20408;-86
2022/02/25 15:27:11;;;;;;;8.40;3.00;;;7.40;99.90;;;;;;6142204;23;20415;-84
2022/02/25 15:30:11;;;;;;;6.50;3.47;;;7.40;99.90;;;;;;6143699;23;20379;-89
2022/02/25 15:33:02;;;;;;;10.37;3.33;;;7.40;99.90;;;;;;6140746;23;20526;-85
2022/02/25 15:35:51;;;;;;;5.20;3.47;;;7.30;99.90;;;;;;6135939;23;20444;-84
2022/02/25 15:38:32;;;;;;;5.83;2.70;;;7.30;99.90;;;;;;6111781;23;20462;-85
2022/02/25 15:41:03;;;;;;;8.30;3.83;;;7.30;99.90;;;;;;6126888;23;20515;-83
2022/02/25 15:43:49;;;;;;;;;;;;;;;;;;;;;
2022/02/25 15:46:25;;;;;;;6.50;3.60;;;7.30;99.90;;;;;;6133964;23;20447;-86
2022/02/25 15:48:58;;;;;;;5.67;3.03;;;7.30;99.90;;;;;;6126473;23;20814;-86
2022/02/25 15:51:31;;;;;;;6.87;2.77;;;7.30;99.90;;;;;;6105836;23;20427;-87
2022/02/25 15:54:08;;;;;;;4.87;2.50;;;7.40;99.90;;;;;;6131296;23;20423;-86
2022/02/25 15:56:42;;;;;;;9.90;3.90;;;7.40;99.90;;;;;;6132209;23;20411;-88
2022/02/25 15:59:42;;;;;;;9.07;4.33;;;7.40;99.90;;;;;;6135289;23;20510;-85
2022/02/25 16:02:15;;;;;;;6.13;3.27;;;7.40;99.90;;;;;;6133619;23;20518;-85
2022/02/25 16:04:51;;;;;;;6.27;2.50;;;7.40;99.90;;;;;;6109081;23;20725;-87
2022/02/25 16:07:27;;;;;;;5.87;2.10;;;7.40;99.90;;;;;;6144725;23;20435;-84
2022/02/25 16:10:11;;;;;;;8.17;2.70;;;7.50;99.90;;;;;;6147494;23;20387;-87
2022/02/25 16:12:52;;;;;;;6.30;2.63;;;7.50;99.90;;;;;;6141928;23;20442;-87
2022/02/25 16:15:34;;;;;;;3.87;1.80;;;7.50;99.90;;;;;;6146243;23;20418;-85
2022/02/25 16:18:23;;;;;;;3.80;2.37;;;7.60;99.90;;;;;;6146355;23;20404;-88
2022/02/25 16:21:20;;;;;;;5.73;2.83;;;7.70;99.90;;;;;;6144287;23;20510;-85
2022/02/25 16:24:11;;;;;;;5.70;2.73;;;7.70;99.90;;;;;;6110994;23;20435;-83
2022/02/25 16:26:44;;;;;;;6.57;3.17;;;7.70;99.90;;;;;;6130447;23;20408;-83
2022/02/25 16:29:38;;;;;;;8.07;4.57;;;7.70;99.90;;;;;;6128965;23;20403;-85
2022/02/25 16:32:42;;;;;;;3.73;2.97;;;7.70;99.90;;;;;;6129703;23;20422;-85
2022/02/25 16:38:45;;;;;;;;;;;;;;;;;;;;;
2022/02/25 16:41:49;;;;;;;8.83;4.50;;;7.70;99.90;;;;;;6135377;23;20455;-84
2022/02/25 16:44:31;;;;;;;4.50;2.90;;;7.70;99.90;;;;;;6133261;23;20443;-85
2022/02/25 16:47:14;;;;;;;10.43;3.03;;;7.70;99.90;;;;;;6132414;23;20498;-86
2022/02/25 16:49:53;;;;;;;11.90;6.10;;;7.70;99.90;;;;;;6131418;23;20455;-85
2022/02/25 16:52:53;;;;;;;7.77;5.00;;;7.80;99.90;;;;;;6111903;23;20495;-85
2022/02/25 16:55:29;;;;;;;7.93;2.73;;;7.80;99.90;;;;;;6108788;23;20423;-86
2022/02/25 16:58:13;;;;;;;6.23;2.50;;;7.90;99.90;;;;;;6129465;23;20443;-85
2022/02/25 17:04:21;;;;;;;2.40;1.90;;;7.90;99.90;;;;;;6099158;23;20497;-86
2022/02/25 17:07:01;;;;;;;5.43;2.80;;;7.90;99.90;;;;;;6108549;23;20404;-86
2022/02/25 17:09:34;;;;;;;4.57;2.93;;;7.90;99.90;;;;;;6131242;23;20835;-84
2022/02/25 17:12:10;;;;;;;4.83;2.57;;;8.00;99.90;;;;;;6107316;23;20450;-84
2022/02/25 17:14:49;;;;;;;5.73;2.80;;;8.10;99.90;;;;;;6138397;23;20415;-84
2022/02/25 17:17:34;;;;;;;9.53;2.70;;;8.30;99.90;;;;;;6127755;23;20400;-84
2022/02/25 17:20:33;;;;;;;4.60;1.90;;;8.20;99.90;;;;;;6122486;23;20436;-84
2022/02/25 17:23:14;;;;;;;6.07;3.20;;;8.10;99.90;;;;;;6126102;23;20439;-85
2022/02/25 17:28:48;;;;;;;5.03;2.40;;;8.30;99.90;;;;;;6129538;23;20819;-86
2022/02/25 17:32:10;;;;;;;9.20;2.67;;;8.30;99.90;;;;;;6135934;23;20432;-84
2022/02/25 17:34:53;;;;;;;8.50;2.30;;;8.40;99.90;;;;;;6121452;23;20415;-84
2022/02/25 17:37:47;;;;;;;6.17;2.40;;;8.10;99.90;;;;;;6127168;23;20463;-84
2022/02/25 17:40:56;;;;;;;7.27;2.33;;;8.00;99.90;;;;;;6130395;23;20447;-84
2022/02/25 17:43:38;;;;;;;4.00;2.33;;;8.00;99.90;;;;;;6145242;23;20427;-88
2022/02/25 17:46:24;;;;;;;5.20;4.10;;;7.90;99.90;;;;;;6132409;23;20415;-84
2022/02/25 17:49:09;;;;;;;8.17;3.10;;;7.70;99.90;;;;;;6137847;23;20392;-81